• Join FlightAware (Why Join?)
  • Login
  • US Flag 
07:51AM EDT


 

Airport Tracker/Info


-or-


 

Live Flight TrackerFlight Track Log ✈ N678DF ✈ 15-May-2013 ✈ KCPS - KMSN

Flight Track Log - Related Links

Times and Time Zones

All times are in EDT time to prevent confusion due to time zone crossing. See the N678DF flight status page for this flight to view local times or setup timezone preferences in your user account.

Time Position Orientation Groundspeed Altitude Reporting Facility
EDT Latitude Longitude Course Direction KTS MPH feet Rate Location/Type
03:34PM 38.5333 -90.2167 15° North 122 140 1,900  Level Gateway (St. Louis) TRACON
03:35PM 38.5325 -90.2381 267° West 116 133 2,500 720 Climbing Kansas City Center
03:36PM 38.5481 -90.2756 298° West 119 137 3,100 240 Climbing Kansas City Center
03:37PM 38.5703 -90.3189 303° West 132 152 3,100 240 Level Kansas City Center
03:38PM 38.5981 -90.3644 308° West 147 169 3,600 480 Climbing Kansas City Center
03:39PM 38.9205 -90.0131 15° North  Level FlightAware Approximate
03:39PM 38.6361 -90.3731 350° North 149 171 4,200  Level Kansas City Center
03:40PM 38.6808 -90.3603 13° North 159 183 4,300 540 Climbing Kansas City Center
03:41PM 38.7269 -90.3622 358° North 152 175 5,400 840 Climbing Kansas City Center
03:42PM 38.7567 -90.3344 36° Northeast 138 159 6,100 600 Climbing Kansas City Center
03:43PM 38.7956 -90.3167 20° North 144 166 6,700 480 Climbing Kansas City Center
03:44PM 38.8325 -90.2961 23° Northeast 146 168 7,100 180 Climbing Kansas City Center
03:45PM 38.8731 -90.2717 25° Northeast 152 175 7,100  Level Kansas City Center
03:46PM 38.9283 -90.2369 26° Northeast 170 196 7,100  Level Kansas City Center
03:47PM 38.9744 -90.2094 25° Northeast 180 207 7,100  Level Kansas City Center
03:48PM 39.0178 -90.1833 25° Northeast 176 203 7,100  Level Kansas City Center
03:49PM 39.0625 -90.1556 26° Northeast 177 204 7,100  Level Kansas City Center
03:50PM 39.1092 -90.1281 25° Northeast 183 211 7,100  Level Kansas City Center
03:51PM 39.1553 -90.0992 26° Northeast 184 212 7,100  Level Kansas City Center
03:52PM 39.2111 -90.0642 26° Northeast 186 214 7,100  Level Kansas City Center
03:53PM 39.2572 -90.0378 24° Northeast 183 211 7,100 120 Level Kansas City Center
03:54PM 39.3019 -90.0094 26° Northeast 180 207 7,400 480 Climbing Kansas City Center
03:55PM 39.3400 -89.9861 25° Northeast 160 184 8,100 300 Climbing Kansas City Center
03:56PM 39.3797 -89.9611 26° Northeast 157 181 8,100  Level Kansas City Center
03:57PM 39.4258 -89.9331 25° Northeast 178 205 8,100 -60 Level Kansas City Center
03:58PM 39.4806 -89.8989 26° Northeast 182 209 8,000  Descending Kansas City Center
03:59PM 39.5281 -89.8706 25° Northeast 186 214 8,100  Climbing Kansas City Center
04:00PM 39.5733 -89.8419 26° Northeast 183 211 8,000 -60 Descending Kansas City Center
04:01PM 39.6206 -89.8139 25° Northeast 186 214 8,000 420 Level Kansas City Center
04:03PM 39.6639 -89.7853 27° Northeast 176 203 8,900 480 Climbing Kansas City Center
04:04PM 39.7025 -89.7611 26° Northeast 157 181 9,100 60 Climbing Kansas City Center
04:05PM 39.7558 -89.7306 24° Northeast 179 206 9,100  Level Kansas City Center
04:06PM 39.8028 -89.6992 27° Northeast 187 215 9,100  Level Kansas City Center
04:07PM 39.8506 -89.6728 23° Northeast 187 215 9,100  Level Kansas City Center
04:08PM 39.9014 -89.6728 360° North 181 208 9,100  Level Kansas City Center
04:09PM 39.9617 -89.6678 North 181 208 9,100  Level Kansas City Center
04:10PM 40.0117 -89.6658 North 180 207 9,100  Level Kansas City Center
04:11PM 40.0614 -89.6619 North 179 206 9,100  Level Kansas City Center
04:12PM 40.1111 -89.6578 North 179 206 9,100  Level Kansas City Center
04:13PM 40.1617 -89.6544 North 181 208 9,100  Level Chicago Center
04:14PM 40.2122 -89.6511 North 181 208 9,100  Level Chicago Center
04:15PM 40.2628 -89.6475 North 182 209 9,100  Level Chicago Center
04:16PM 40.3231 -89.6425 North 181 208 9,100  Level Chicago Center
04:17PM 40.3733 -89.6397 North 181 208 9,100  Level Chicago Center
04:18PM 40.4236 -89.6356 North 181 208 9,100  Level Chicago Center
04:19PM 40.4733 -89.6314 North 180 207 9,100  Level Chicago Center
04:20PM 40.5242 -89.6289 North 182 209 9,100  Level Chicago Center
04:21PM 40.5717 -89.6250 North 175 201 9,100  Level Chicago Center
04:22PM 40.6283 -89.6214 North 172 198 9,100  Level Chicago Center
04:23PM 40.6756 -89.6181 North 171 197 9,100  Level Chicago Center
04:24PM 40.7228 -89.6144 North 172 198 9,100  Level Chicago Center
04:25PM 40.7700 -89.6108 North 171 197 9,100  Level Chicago Center
04:26PM 40.8267 -89.6072 North 171 197 9,100  Level Chicago Center
04:27PM 40.8736 -89.6039 North 170 196 9,100  Level Chicago Center
04:28PM 40.9217 -89.6008 North 171 197 9,100  Level Chicago Center
04:29PM 40.9689 -89.5981 North 171 197 9,100  Level Chicago Center
04:30PM 41.0172 -89.5939 North 172 198 9,100  Level Chicago Center
04:31PM 41.0661 -89.5906 North 175 201 9,100  Level Chicago Center
04:32PM 41.1247 -89.5858 North 176 203 9,100  Level Chicago Center
04:33PM 41.1736 -89.5833 North 175 201 9,100  Level Chicago Center
04:35PM 41.2228 -89.5786 North 176 203 9,100  Level Chicago Center
04:36PM 41.2725 -89.5742 North 178 205 9,100  Level Chicago Center
04:37PM 41.3219 -89.5711 North 179 206 9,100  Level Chicago Center
04:38PM 41.3708 -89.5669 North 176 203 9,100  Level Chicago Center
04:39PM 41.4286 -89.5622 North 174 200 9,100  Level Chicago Center
04:40PM 41.4769 -89.5586 North 173 199 9,100  Level Chicago Center
04:41PM 41.5258 -89.5553 North 175 201 9,100  Level Chicago Center
04:42PM 41.5753 -89.5519 North 177 204 9,100  Level Chicago Center
04:43PM 41.6308 -89.5481 North 177 204 9,100  Level Chicago Center
04:44PM 41.6797 -89.5436 North 177 204 9,100  Level Chicago Center
04:45PM 41.7278 -89.5414 North 175 201 9,100  Level Chicago Center
04:46PM 41.7769 -89.5369 North 177 204 9,100  Level Chicago Center
04:47PM 41.8258 -89.5339 North 176 203 9,100  Level Chicago Center
04:48PM 41.8839 -89.5297 North 175 201 9,100  Level Chicago Center
04:49PM 41.9331 -89.5267 North 177 204 9,100  Level Chicago Center
04:50PM 41.9811 -89.5203 North 175 201 9,100  Level Chicago Center
04:51PM 42.0292 -89.5131 North 174 200 9,100  Level Chicago Center
04:52PM 42.0778 -89.5053 North 171 197 9,100  Level Chicago Center
04:53PM 42.1339 -89.4983 North 173 199 9,100 -60 Level Chicago Center
04:54PM 42.1831 -89.4903 North 176 203 9,000 -60 Descending Chicago Center
04:55PM 42.2322 -89.4844 North 177 204 9,000  Level Chicago Center
04:56PM 42.2803 -89.4769 North 175 201 9,000  Level Chicago Center
04:57PM 42.3269 -89.4678 North 171 197 9,000  Level Chicago Center
04:58PM 42.3747 -89.4600 North 170 196 9,000  Level Chicago Center
04:59PM 42.4303 -89.4517 North 171 197 9,000  Level Chicago Center
05:00PM 42.4769 -89.4433 North 170 196 9,000  Level Chicago Center
05:01PM 42.5242 -89.4369 North 170 196 9,000 -360 Level Chicago Center
05:02PM 42.5750 -89.4283 North 180 207 8,300 -780 Descending Chicago Center
05:03PM 42.6269 -89.4197 North 187 215 7,500 -780 Descending Chicago Center
05:05PM 42.6836 -89.4106 North 176 203 6,700 -660 Descending Chicago Center
05:06PM 42.7300 -89.4036 North 171 197 6,200 -600 Descending Chicago Center
05:07PM 42.7758 -89.3953 North 166 191 5,500 -600 Descending Chicago Center
05:08PM 42.8214 -89.3889 North 165 190 5,000 -240 Descending Chicago Center
05:09PM 42.8661 -89.3808 North 162 186 5,000 -60 Level Chicago Center
05:10PM 42.9089 -89.3564 23° Northeast 169 194 4,900 -300 Descending Chicago Center
05:11PM 42.9564 -89.3106 35° Northeast 177 204 4,400 -480 Descending Chicago Center
05:12PM 42.9869 -89.2533 54° Northeast 182 209 4,000 -300 Descending Chicago Center
05:13PM 43.0103 -89.2114 53° Northeast 156 180 3,800 -300 Descending Chicago Center
05:14PM 43.0458 -89.2147 356° North 154 177 3,400 -600 Descending Chicago Center
05:15PM 43.0831 -89.2592 319° Northwest 169 194 2,600 -960 Descending Chicago Center
05:16PM 43.1222 -89.3067 318° Northwest 169 194 1,500 -780 Descending Chicago Center
05:17PM 43.1442 -89.3339 318° Northwest 149 171 1,100 -420 Descending Chicago Center
05:19PM 43.1333 -89.3333 North  Level FlightAware Approximate